Hunters, WA (99137)

3:06 AM PDT on June 30, 2015 (GMT -0700)
Waterloo | | Change Station
CLOSE
Current Station
Personal Weather Station
Location: Rice, WA
Elevation: 2379 ft
Nearby Weather Stations

Elev 2379 ft 48.37 °N, 118.12 °W | Updated 2 seconds ago

Clear
Clear
57.7 °F
Feels Like 57.7 °F
N
0.0
Wind Variable Wind from NE
Gusts 0.0 mph

Today
High -- | Low -- °F
--% Chance of Precip.
Yesterday
High -- | Low -- °F
Precip. -- in
4:55 AM 8:56 PM
Waxing Gibbous, 97% visible
Pressure 29.96 in
Visibility 10.0 miles
Clouds Clear
Dew Point 55 °F
Humidity 92%
Rainfall in
Snow Depth Not available.
UV 0 out of 12
Pollen 6.30 out of 12
Air Quality Not available.
Flu Activity Sporadic
METAR KDEW 300953Z AUTO 01005KT 10SM CLR 19/15 A3001 RMK AO2 SLP144 T01940150

More Conditions Fewer Conditions

Pressure 29.96 in
Visibility 10.0 miles
Clouds Clear
Dew Point 55 °F
Humidity 92%
Rainfall in
Snow Depth Not available.
UV 0 out of 12
Pollen 6.30 out of 12
Air Quality Not available.
Flu Activity Sporadic
METAR KDEW 300953Z AUTO 01005KT 10SM CLR 19/15 A3001 RMK AO2 SLP144 T01940150

More Conditions Fewer Conditions

10-Day Weather Forecast

×

Almanac

Astronomy

Jun. 30, 2015 Rise Set
Actual Time
Civil Twilight
Nautical Twilight
Astronomical Twilight
Moon
Length of Visible Light
Length of Day
Tomorrow will be .
, % of the Moon is Illuminated

Today's Extremes

State Highs State Lows

Community

WunderPhotos

Upload Photos

1,833,986 photos uploaded!

WunderBlogs® & News

Nearby

Air Quality

  Air Quality AQ Index Pollutant
Not available.

Snow Depth

Station Depth Elevation

Earthquake Activity

City Distance Mag. Time & Date
Minimum magnitude displayed is 2.5.

Coastal Water Temperatures

Place Temperature

Stations

Nearby Weather Stations

Station Location Temp. Windchill Dew Point Humidity Wind Precip. Elev Updated Type